createdAt,value
2023-01-27T00:01:46.914Z,1.33
2023-01-27T00:04:32.208Z,1.40
2023-01-27T00:07:17.768Z,1.34
2023-01-27T00:10:03.151Z,1.33
2023-01-27T00:13:07.647Z,1.31
2023-01-27T00:15:53.337Z,1.22
2023-01-27T00:18:38.398Z,1.30
2023-01-27T00:21:42.468Z,1.26
2023-01-27T00:24:36.980Z,1.26
2023-01-27T00:27:22.745Z,1.27
2023-01-27T00:30:09.153Z,1.27
2023-01-27T00:33:13.265Z,1.35
2023-01-27T00:35:59.529Z,1.38
2023-01-27T00:38:44.587Z,1.40
2023-01-27T00:41:30.787Z,1.43
2023-01-27T00:44:16.308Z,1.39
2023-01-27T00:47:01.639Z,1.54
2023-01-27T00:49:46.939Z,1.55
2023-01-27T00:52:32.086Z,1.51
2023-01-27T00:55:18.281Z,1.52
2023-01-27T00:58:04.425Z,1.50
2023-01-27T01:00:49.852Z,1.41
2023-01-27T01:03:36.421Z,1.44
2023-01-27T01:06:21.662Z,1.36
2023-01-27T01:09:10.531Z,1.34
2023-01-27T01:11:56.280Z,1.34
2023-01-27T01:14:41.615Z,1.32
2023-01-27T01:17:26.971Z,1.35
2023-01-27T01:20:13.015Z,1.31
2023-01-27T01:22:58.423Z,1.27
2023-01-27T01:25:43.619Z,1.18
2023-01-27T01:28:28.899Z,1.07
2023-01-27T01:31:19.229Z,1.07
2023-01-27T01:34:04.902Z,1.09
2023-01-27T01:36:50.312Z,0.98
2023-01-27T01:39:35.625Z,1.00
2023-01-27T01:42:21.034Z,0.96
2023-01-27T01:45:31.462Z,0.94
2023-01-27T01:48:36.906Z,1.00
2023-01-27T01:51:26.992Z,1.02
2023-01-27T01:54:19.619Z,1.05
2023-01-27T01:57:05.104Z,1.03
2023-01-27T01:59:53.895Z,1.05
2023-01-27T02:02:40.162Z,1.04
2023-01-27T02:05:31.094Z,1.04
2023-01-27T02:08:40.165Z,0.98
2023-01-27T02:11:25.500Z,1.02
2023-01-27T02:14:13.251Z,0.97
2023-01-27T02:16:58.587Z,0.97
2023-01-27T02:20:34.872Z,0.99
2023-01-27T02:23:38.339Z,0.99
2023-01-27T02:26:34.050Z,0.93
2023-01-27T02:29:19.139Z,0.96
2023-01-27T02:32:04.590Z,0.91
2023-01-27T02:34:50.162Z,0.89
2023-01-27T02:37:36.027Z,0.90
2023-01-27T02:40:21.724Z,0.92
2023-01-27T02:43:06.791Z,0.87
2023-01-27T02:45:52.344Z,0.88
2023-01-27T02:48:37.459Z,0.84
2023-01-27T02:51:24.281Z,0.87
2023-01-27T02:54:09.411Z,0.86
2023-01-27T02:56:54.780Z,0.89
2023-01-27T02:59:40.004Z,0.87
2023-01-27T03:02:30.521Z,0.85
2023-01-27T03:05:16.168Z,0.91
2023-01-27T03:08:01.678Z,0.95
2023-01-27T03:10:51.964Z,0.88
2023-01-27T03:13:37.609Z,0.92
2023-01-27T03:16:41.405Z,0.87
2023-01-27T03:19:29.529Z,0.87
2023-01-27T03:22:15.116Z,0.85
2023-01-27T03:25:00.566Z,0.85
2023-01-27T03:27:46.604Z,0.80
2023-01-27T03:30:31.817Z,0.83
2023-01-27T03:33:17.137Z,0.87
2023-01-27T03:36:21.578Z,0.79
2023-01-27T03:39:25.655Z,0.78
2023-01-27T03:42:29.307Z,0.76
2023-01-27T03:45:33.463Z,0.77
2023-01-27T03:48:20.965Z,0.74
2023-01-27T03:51:08.015Z,0.70
2023-01-27T03:53:53.550Z,0.74
2023-01-27T03:56:38.795Z,0.73
2023-01-27T03:59:24.171Z,0.77
2023-01-27T04:02:28.235Z,0.75
2023-01-27T04:05:32.283Z,0.76
2023-01-27T04:08:17.651Z,0.84
2023-01-27T04:11:22.507Z,0.86
2023-01-27T04:14:08.679Z,0.74
2023-01-27T04:16:56.290Z,0.90
2023-01-27T04:19:41.835Z,0.91
2023-01-27T04:22:27.305Z,0.94
2023-01-27T04:25:13.491Z,0.88
2023-01-27T04:27:59.010Z,0.92
2023-01-27T04:30:44.365Z,0.93
2023-01-27T04:33:29.942Z,0.88
2023-01-27T04:36:15.714Z,0.92
2023-01-27T04:39:00.852Z,0.93
2023-01-27T04:41:46.731Z,0.86
2023-01-27T04:44:31.729Z,0.88
2023-01-27T04:47:17.104Z,0.87
2023-01-27T04:50:02.382Z,0.84
2023-01-27T04:52:47.667Z,0.77
2023-01-27T04:55:33.096Z,0.85
2023-01-27T04:58:18.369Z,0.87
2023-01-27T05:01:04.081Z,0.87
2023-01-27T05:03:49.582Z,0.81
2023-01-27T05:06:34.939Z,0.87
2023-01-27T05:09:20.268Z,0.77
2023-01-27T05:12:05.879Z,0.78
2023-01-27T05:14:51.236Z,0.73
2023-01-27T05:17:36.505Z,0.78
2023-01-27T05:20:21.900Z,0.72
2023-01-27T05:23:26.123Z,0.79
2023-01-27T05:26:17.492Z,0.76
2023-01-27T05:29:02.860Z,0.75
2023-01-27T05:31:48.112Z,0.72
2023-01-27T05:34:33.428Z,0.76
2023-01-27T05:37:18.632Z,0.75
2023-01-27T05:40:04.489Z,0.78
2023-01-27T05:42:51.987Z,0.75
2023-01-27T05:45:37.446Z,0.70
2023-01-27T05:48:22.724Z,0.71
2023-01-27T05:51:08.544Z,0.73
2023-01-27T05:53:55.011Z,0.73
2023-01-27T05:56:40.869Z,0.71
2023-01-27T05:59:26.560Z,0.74
2023-01-27T06:02:12.205Z,0.70
2023-01-27T06:04:57.199Z,0.75
2023-01-27T06:07:43.261Z,0.78
2023-01-27T06:10:28.763Z,0.73
2023-01-27T06:13:14.608Z,0.73
2023-01-27T06:16:02.376Z,0.79
2023-01-27T06:18:48.414Z,0.74
2023-01-27T06:21:33.735Z,0.74
2023-01-27T06:24:19.465Z,0.75
2023-01-27T06:27:04.946Z,0.74
2023-01-27T06:29:51.116Z,0.76
2023-01-27T06:32:37.452Z,0.79
2023-01-27T06:35:23.404Z,0.72
2023-01-27T06:38:12.601Z,0.72
2023-01-27T06:40:58.660Z,0.78
2023-01-27T06:43:44.287Z,0.76
2023-01-27T06:46:30.160Z,0.80
2023-01-27T06:49:15.619Z,0.77
2023-01-27T06:52:01.262Z,0.83
2023-01-27T06:54:46.991Z,0.81
2023-01-27T06:57:32.946Z,0.77
2023-01-27T07:00:19.242Z,0.82
2023-01-27T07:03:06.854Z,0.84
2023-01-27T07:05:53.805Z,0.87
2023-01-27T07:08:40.131Z,0.85
2023-01-27T07:11:26.915Z,0.92
2023-01-27T07:14:17.422Z,0.91
2023-01-27T07:17:08.731Z,0.95
2023-01-27T07:19:55.190Z,1.06
2023-01-27T07:22:40.518Z,1.11
2023-01-27T07:25:29.210Z,1.15
2023-01-27T07:28:15.055Z,1.21
2023-01-27T07:31:02.272Z,1.19
2023-01-27T07:33:48.316Z,1.26
2023-01-27T07:36:33.742Z,1.34
2023-01-27T07:39:19.125Z,1.34
2023-01-27T07:42:05.455Z,1.37
2023-01-27T07:44:51.778Z,1.34
2023-01-27T07:47:37.618Z,1.50
2023-01-27T07:50:23.658Z,1.56
2023-01-27T07:53:11.180Z,1.65
2023-01-27T07:55:59.812Z,1.65
2023-01-27T07:58:45.578Z,1.71
2023-01-27T08:01:37.845Z,1.71
2023-01-27T08:04:24.600Z,1.79
2023-01-27T08:07:09.533Z,1.96
2023-01-27T08:10:01.548Z,2.05
2023-01-27T08:12:47.672Z,2.07
2023-01-27T08:15:33.223Z,2.17
2023-01-27T08:18:18.206Z,2.13
2023-01-27T08:21:05.750Z,2.24
2023-01-27T08:23:53.360Z,2.32
2023-01-27T08:26:39.113Z,2.21
2023-01-27T08:29:24.989Z,2.32
2023-01-27T08:32:15.275Z,2.37
2023-01-27T08:35:00.564Z,2.33
2023-01-27T08:37:51.983Z,2.42
2023-01-27T08:40:38.980Z,2.54
2023-01-27T08:43:24.570Z,2.59
2023-01-27T08:46:10.710Z,2.58
2023-01-27T08:48:56.553Z,2.71
2023-01-27T08:51:43.852Z,2.69
2023-01-27T08:54:29.107Z,2.65
2023-01-27T08:57:14.858Z,2.66
2023-01-27T09:00:01.170Z,2.63
2023-01-27T09:02:47.881Z,2.72
2023-01-27T09:05:35.915Z,2.75
2023-01-27T09:08:21.128Z,2.98
2023-01-27T09:11:16.576Z,3.00
2023-01-27T09:14:03.437Z,3.01
2023-01-27T09:16:50.066Z,3.04
2023-01-27T09:19:37.638Z,2.99
2023-01-27T09:22:22.938Z,3.04
2023-01-27T09:25:11.397Z,3.20
2023-01-27T09:27:58.581Z,3.28
2023-01-27T09:30:46.429Z,3.16
2023-01-27T09:33:32.739Z,3.26
2023-01-27T09:36:20.265Z,3.21
2023-01-27T09:41:15.374Z,3.98
2023-01-27T09:44:04.068Z,3.98
2023-01-27T09:47:08.199Z,3.24
2023-01-27T09:50:19.087Z,3.24
2023-01-27T09:53:15.925Z,3.53
2023-01-27T09:56:13.771Z,3.49
2023-01-27T09:59:30.400Z,3.82
2023-01-27T10:02:46.926Z,3.87
2023-01-27T10:05:36.001Z,4.22
2023-01-27T10:08:30.407Z,4.47
2023-01-27T10:11:26.228Z,4.19
2023-01-27T10:14:20.665Z,4.55
2023-01-27T10:17:25.755Z,4.83
2023-01-27T10:20:18.418Z,4.83
2023-01-27T10:23:25.573Z,4.72
2023-01-27T10:26:31.824Z,4.69
2023-01-27T10:29:55.897Z,4.68
2023-01-27T10:33:03.224Z,4.87
2023-01-27T10:35:59.828Z,4.95
2023-01-27T10:39:03.910Z,4.96
2023-01-27T10:41:55.552Z,4.88
2023-01-27T10:44:55.915Z,4.53
2023-01-27T10:48:06.403Z,4.41
2023-01-27T10:51:05.259Z,4.09
2023-01-27T10:54:01.093Z,3.88
2023-01-27T10:57:09.865Z,3.89
2023-01-27T11:03:28.392Z,3.61
2023-01-27T11:06:22.615Z,3.59
2023-01-27T11:09:12.946Z,3.53
2023-01-27T11:12:02.897Z,3.61
2023-01-27T11:14:50.113Z,3.58
2023-01-27T11:17:39.306Z,3.60
2023-01-27T11:20:31.248Z,3.52
2023-01-27T11:23:18.281Z,3.71
2023-01-27T11:26:16.412Z,3.90
2023-01-27T11:29:13.857Z,3.80
